Time;durP1;ratioP1;P1;durP2;ratioP2;P2;SDS_P1;SDS_P2;PMS_P1;PMS_P2;Temp;Humidity;BMP_temperature;BMP_pressure;BME280_temperature;BME280_humidity;BME280_pressure;Samples;Min_cycle;Max_cycle;Signal;HPM_P1;HPM_P2
2022/05/14 00:01:25;;;;;;;1.15;1.05;;;16.40;58.40;;;;;;5008643;28;20287;-59
2022/05/14 00:03:56;;;;;;;1.00;0.88;;;16.30;58.40;;;;;;5008956;28;20193;-59
2022/05/14 00:06:29;;;;;;;1.02;0.85;;;16.40;58.40;;;;;;5008342;28;20258;-58
2022/05/14 00:09:02;;;;;;;1.15;1.05;;;16.40;58.40;;;;;;5009190;28;20739;-59
2022/05/14 00:14:22;;;;;;;1.95;1.40;;;16.30;58.50;;;;;;5006728;28;20738;-59
2022/05/14 00:16:55;;;;;;;1.75;1.25;;;16.40;58.60;;;;;;5008278;28;21136;-59
2022/05/14 00:19:26;;;;;;;1.13;1.02;;;16.40;58.70;;;;;;5008999;28;20220;-59
2022/05/14 00:21:56;;;;;;;1.38;1.27;;;16.40;58.70;;;;;;5008641;28;20192;-59
2022/05/14 00:24:27;;;;;;;1.20;1.10;;;16.40;58.80;;;;;;5007876;28;20244;-59
2022/05/14 00:26:57;;;;;;;1.63;1.30;;;16.40;58.80;;;;;;5005838;28;20196;-58
2022/05/14 00:29:29;;;;;;;1.52;1.30;;;16.40;58.90;;;;;;5004984;28;20221;-58
2022/05/14 00:32:01;;;;;;;2.40;1.15;;;16.50;59.00;;;;;;5007046;28;20224;-58
2022/05/14 00:34:31;;;;;;;1.33;1.20;;;16.50;59.00;;;;;;5007729;28;20689;-59
2022/05/14 00:37:02;;;;;;;1.60;1.00;;;16.50;59.00;;;;;;5007782;28;20243;-60
2022/05/14 00:39:32;;;;;;;1.77;1.30;;;16.50;58.90;;;;;;5007428;28;20827;-59
2022/05/14 00:42:03;;;;;;;1.85;1.40;;;16.50;59.00;;;;;;5006816;28;20196;-59
2022/05/14 00:44:34;;;;;;;1.42;1.20;;;16.50;59.00;;;;;;5006252;28;20232;-58
2022/05/14 00:47:11;;;;;;;1.20;1.10;;;16.50;59.00;;;;;;5007894;28;20249;-59
2022/05/14 00:49:42;;;;;;;3.50;1.80;;;16.50;59.00;;;;;;5006719;28;20275;-59
2022/05/14 00:52:18;;;;;;;2.03;1.50;;;16.50;59.30;;;;;;5007951;28;20552;-59
2022/05/14 00:54:52;;;;;;;2.25;1.58;;;16.60;59.60;;;;;;5008430;28;20720;-58
2022/05/14 00:57:28;;;;;;;2.58;1.38;;;16.60;59.70;;;;;;5005820;28;20197;-58
2022/05/14 01:00:00;;;;;;;1.40;1.30;;;16.60;59.60;;;;;;5008329;28;20278;-58
2022/05/14 01:02:32;;;;;;;2.92;1.45;;;16.60;59.60;;;;;;5007824;28;20279;-58
2022/05/14 01:05:03;;;;;;;1.92;1.40;;;16.60;59.50;;;;;;5008099;28;20258;-59
2022/05/14 01:07:36;;;;;;;2.50;1.13;;;16.70;59.50;;;;;;5008163;28;20193;-56
2022/05/14 01:10:09;;;;;;;1.80;1.52;;;16.70;59.50;;;;;;5008276;28;20216;-58
2022/05/14 01:12:45;;;;;;;1.80;1.20;;;16.70;59.50;;;;;;5007738;28;20271;-57
2022/05/14 01:15:19;;;;;;;2.40;1.20;;;16.70;59.40;;;;;;5009349;28;20193;-57
2022/05/14 01:17:52;;;;;;;1.80;1.30;;;16.70;59.40;;;;;;5008259;28;20641;-57
2022/05/14 01:20:23;;;;;;;2.58;1.27;;;16.70;59.40;;;;;;5008437;28;20224;-57
2022/05/14 01:23:03;;;;;;;2.55;1.60;;;16.80;59.40;;;;;;5007411;28;20200;-58
2022/05/14 01:28:29;;;;;;;2.80;1.52;;;16.80;59.40;;;;;;4991354;28;20567;-57
2022/05/14 01:31:02;;;;;;;2.72;1.70;;;16.80;59.20;;;;;;4989753;28;20225;-58
2022/05/14 01:33:32;;;;;;;3.78;1.58;;;16.80;59.20;;;;;;4989568;28;20194;-58
2022/05/14 01:36:06;;;;;;;2.78;1.70;;;16.90;59.90;;;;;;4991535;28;20633;-58
2022/05/14 01:38:37;;;;;;;2.72;1.50;;;16.90;59.40;;;;;;4993685;28;20201;-58
2022/05/14 01:41:07;;;;;;;2.50;1.50;;;16.90;59.40;;;;;;4993051;28;20244;-58
2022/05/14 01:43:40;;;;;;;2.35;1.55;;;16.90;59.40;;;;;;4992711;28;20398;-59
2022/05/14 01:46:11;;;;;;;2.97;1.65;;;16.90;59.30;;;;;;4993403;28;20225;-58
2022/05/14 01:48:42;;;;;;;1.98;1.38;;;17.00;59.40;;;;;;4993972;28;20649;-58
2022/05/14 01:51:13;;;;;;;3.13;1.73;;;17.00;59.40;;;;;;4993682;28;20398;-58
2022/05/14 01:53:43;;;;;;;3.28;1.50;;;17.00;59.30;;;;;;4993422;28;20194;-58
2022/05/14 01:56:14;;;;;;;4.78;1.70;;;17.00;59.30;;;;;;4993097;28;20260;-58
2022/05/14 01:58:47;;;;;;;3.20;1.83;;;17.00;59.30;;;;;;4995712;28;20252;-58
2022/05/14 02:01:19;;;;;;;2.55;1.70;;;17.00;59.30;;;;;;4993399;28;20198;-58
2022/05/14 02:03:51;;;;;;;3.05;1.83;;;17.10;59.30;;;;;;4993363;28;20252;-58
2022/05/14 02:06:22;;;;;;;1.90;1.23;;;17.10;59.20;;;;;;4993472;28;20233;-58
2022/05/14 02:08:53;;;;;;;1.95;1.63;;;17.10;59.20;;;;;;4993526;28;20267;-58
2022/05/14 02:11:24;;;;;;;3.40;1.63;;;17.10;59.20;;;;;;4993200;28;20252;-58
2022/05/14 02:13:57;;;;;;;2.25;1.50;;;17.20;59.20;;;;;;4993338;28;20256;-58
2022/05/14 02:16:27;;;;;;;2.10;1.60;;;17.10;59.20;;;;;;4993592;28;20205;-58
2022/05/14 02:18:58;;;;;;;2.70;1.60;;;17.20;59.20;;;;;;4993138;28;20233;-58
2022/05/14 02:21:29;;;;;;;4.68;1.73;;;17.20;59.80;;;;;;4993201;28;20252;-58
2022/05/14 02:23:59;;;;;;;3.08;1.70;;;17.20;59.20;;;;;;4993033;28;20198;-58
2022/05/14 02:26:30;;;;;;;2.88;1.50;;;17.20;59.20;;;;;;4992512;28;20225;-58
2022/05/14 02:29:02;;;;;;;2.55;1.67;;;17.30;59.20;;;;;;4991896;28;20194;-58
2022/05/14 02:31:33;;;;;;;2.10;1.48;;;17.20;59.20;;;;;;4992574;28;20197;-58
2022/05/14 02:34:04;;;;;;;2.47;1.40;;;17.30;59.20;;;;;;4992525;28;20198;-58
2022/05/14 02:36:35;;;;;;;2.25;1.60;;;17.30;59.30;;;;;;4992426;28;20201;-57
2022/05/14 02:39:06;;;;;;;3.03;1.75;;;17.30;59.30;;;;;;4992515;28;20280;-58
2022/05/14 02:41:37;;;;;;;3.50;1.58;;;17.30;59.30;;;;;;4991664;28;20272;-58
2022/05/14 02:44:10;;;;;;;2.88;1.60;;;17.40;59.30;;;;;;4992965;28;20202;-58
2022/05/14 02:46:40;;;;;;;3.90;1.73;;;17.40;59.30;;;;;;4991891;28;20659;-58
2022/05/14 02:49:11;;;;;;;3.22;1.40;;;17.40;59.30;;;;;;4992398;28;20221;-58
2022/05/14 02:51:42;;;;;;;3.20;2.03;;;17.40;59.30;;;;;;4992757;28;20209;-58
2022/05/14 02:54:12;;;;;;;3.90;1.60;;;17.40;59.30;;;;;;4992114;28;20248;-58
2022/05/14 02:56:43;;;;;;;3.97;1.60;;;17.40;59.30;;;;;;4991928;28;20724;-58
2022/05/14 02:59:15;;;;;;;2.20;1.40;;;17.50;59.30;;;;;;4992075;28;20268;-59
2022/05/14 03:01:49;;;;;;;3.05;1.58;;;17.50;59.30;;;;;;4992213;28;20256;-58
2022/05/14 03:04:22;;;;;;;1.85;1.52;;;17.50;59.20;;;;;;4992437;28;20204;-58
2022/05/14 03:06:53;;;;;;;2.95;1.40;;;17.50;59.20;;;;;;4992335;28;20225;-58
2022/05/14 03:09:24;;;;;;;1.98;1.50;;;17.60;59.30;;;;;;4992331;28;20272;-58
2022/05/14 03:11:55;;;;;;;3.05;1.50;;;17.60;59.40;;;;;;4991292;28;20334;-58
2022/05/14 03:14:37;;;;;;;2.15;1.55;;;17.60;59.40;;;;;;4992080;28;20197;-58
2022/05/14 03:17:09;;;;;;;2.38;1.42;;;17.60;59.40;;;;;;4991906;28;20198;-58
2022/05/14 03:19:39;;;;;;;2.38;1.63;;;17.60;59.40;;;;;;4992053;28;20225;-58
2022/05/14 03:22:10;;;;;;;2.50;1.33;;;17.70;59.50;;;;;;4992001;28;20276;-59
2022/05/14 03:24:41;;;;;;;1.75;1.30;;;17.70;59.60;;;;;;4991423;28;20198;-58
2022/05/14 03:27:13;;;;;;;2.25;1.58;;;17.70;59.50;;;;;;4991507;28;20197;-58
2022/05/14 03:29:46;;;;;;;3.47;1.40;;;17.80;59.60;;;;;;4991204;28;20240;-58
2022/05/14 03:32:16;;;;;;;2.00;1.23;;;17.80;59.50;;;;;;4991429;28;20464;-58
2022/05/14 03:34:47;;;;;;;2.55;1.20;;;17.80;59.50;;;;;;4992109;28;20201;-58
2022/05/14 03:37:17;;;;;;;2.60;1.48;;;17.90;59.50;;;;;;4991843;28;20252;-58
2022/05/14 03:39:48;;;;;;;3.25;1.60;;;17.90;59.40;;;;;;4990937;28;20280;-58
2022/05/14 03:42:19;;;;;;;2.15;1.30;;;17.90;59.30;;;;;;4974213;28;20198;-58
2022/05/14 03:44:51;;;;;;;2.72;1.17;;;17.90;59.30;;;;;;4972303;28;20256;-58
2022/05/14 03:47:22;;;;;;;1.55;1.20;;;17.90;59.30;;;;;;4972024;28;20257;-58
2022/05/14 03:49:52;;;;;;;1.75;1.30;;;18.00;59.30;;;;;;4971441;28;20230;-58
2022/05/14 03:52:23;;;;;;;1.63;1.30;;;18.00;59.30;;;;;;4972449;28;20260;-58
2022/05/14 03:54:54;;;;;;;1.30;1.08;;;18.00;59.80;;;;;;4986963;28;20244;-58
2022/05/14 03:57:24;;;;;;;1.58;1.17;;;18.00;59.20;;;;;;4991161;28;20198;-59
2022/05/14 03:59:56;;;;;;;1.75;1.15;;;18.00;59.20;;;;;;4990708;28;20295;-58
2022/05/14 04:02:27;;;;;;;2.30;1.05;;;18.10;59.20;;;;;;4991106;28;20259;-58
2022/05/14 04:04:58;;;;;;;1.63;1.52;;;18.10;59.20;;;;;;4990960;28;20193;-58
2022/05/14 04:07:28;;;;;;;1.50;1.20;;;18.10;59.20;;;;;;4993437;28;20193;-57
2022/05/14 04:09:59;;;;;;;1.73;1.20;;;18.10;59.20;;;;;;4990500;28;20221;-58
2022/05/14 04:12:29;;;;;;;2.05;1.13;;;18.10;59.10;;;;;;4991139;28;20658;-58
2022/05/14 04:15:02;;;;;;;1.92;1.40;;;18.10;59.10;;;;;;4991914;28;20193;-58
2022/05/14 04:17:33;;;;;;;1.17;1.05;;;18.20;59.10;;;;;;4991021;28;20224;-58
2022/05/14 04:20:03;;;;;;;2.47;1.30;;;18.20;59.10;;;;;;4990755;28;20206;-58
2022/05/14 04:22:34;;;;;;;1.38;1.27;;;18.20;59.10;;;;;;4990913;28;20649;-59
2022/05/14 04:25:05;;;;;;;1.80;1.13;;;18.20;59.00;;;;;;4990177;28;20201;-58
2022/05/14 04:27:36;;;;;;;2.22;1.40;;;18.20;59.00;;;;;;4990387;28;20260;-58
2022/05/14 04:30:09;;;;;;;2.72;1.55;;;18.20;58.90;;;;;;4990026;28;20221;-59
2022/05/14 04:32:40;;;;;;;1.58;1.20;;;18.20;58.90;;;;;;4990408;28;20201;-58
2022/05/14 04:35:11;;;;;;;1.60;1.17;;;18.20;58.90;;;;;;4990331;28;20287;-58
2022/05/14 04:37:42;;;;;;;1.15;1.00;;;18.20;58.90;;;;;;4990758;28;20728;-58
2022/05/14 04:40:14;;;;;;;2.58;1.20;;;18.20;58.90;;;;;;4990503;28;20283;-58
2022/05/14 04:42:44;;;;;;;1.38;1.20;;;18.30;58.90;;;;;;4990514;28;20541;-58
2022/05/14 04:45:17;;;;;;;2.42;1.50;;;18.30;58.90;;;;;;4990697;28;20252;-58
2022/05/14 04:47:47;;;;;;;2.08;1.40;;;18.20;58.90;;;;;;4990181;28;20208;-58
2022/05/14 04:50:19;;;;;;;1.90;1.23;;;18.30;58.90;;;;;;4989679;28;20679;-58
2022/05/14 04:52:49;;;;;;;1.73;1.20;;;18.30;58.90;;;;;;4989736;28;20337;-58
2022/05/14 04:55:20;;;;;;;1.42;1.10;;;18.30;58.90;;;;;;4989335;28;20229;-59
2022/05/14 04:57:50;;;;;;;2.35;1.38;;;18.30;58.90;;;;;;4990058;28;20256;-58
2022/05/14 05:00:23;;;;;;;4.18;1.67;;;18.30;58.90;;;;;;4989868;28;20218;-59
2022/05/14 05:05:40;;;;;;;2.88;2.03;;;18.30;59.20;;;;;;4990370;28;20224;-58
2022/05/14 05:08:11;;;;;;;3.72;1.90;;;18.30;59.20;;;;;;4989674;28;20251;-59
2022/05/14 05:10:42;;;;;;;3.45;1.92;;;18.30;59.20;;;;;;4990547;28;20214;-58
2022/05/14 05:13:14;;;;;;;4.82;2.13;;;18.30;59.80;;;;;;4993549;28;20197;-59
2022/05/14 05:15:47;;;;;;;4.13;2.13;;;18.30;59.20;;;;;;4994646;28;20623;-59
2022/05/14 05:18:18;;;;;;;4.85;2.15;;;18.30;59.20;;;;;;4993861;28;20233;-58
2022/05/14 05:20:52;;;;;;;2.42;2.08;;;18.30;59.20;;;;;;4993534;28;20441;-58
2022/05/14 05:23:24;;;;;;;3.00;1.83;;;18.30;59.20;;;;;;4993897;28;20285;-58
2022/05/14 05:25:54;;;;;;;3.83;2.00;;;18.30;59.20;;;;;;4993496;28;20257;-58
2022/05/14 05:28:25;;;;;;;3.50;2.00;;;18.30;59.20;;;;;;4993656;28;20241;-59
2022/05/14 05:30:57;;;;;;;3.15;1.95;;;18.30;59.20;;;;;;4993886;28;20221;-58
2022/05/14 05:33:29;;;;;;;3.50;2.05;;;18.30;59.20;;;;;;4993889;28;20201;-58
2022/05/14 05:35:59;;;;;;;3.60;2.40;;;18.40;59.20;;;;;;4993811;28;20201;-58
2022/05/14 05:38:30;;;;;;;3.60;1.98;;;18.30;59.10;;;;;;4994076;28;20281;-58
2022/05/14 05:41:00;;;;;;;2.88;2.10;;;18.40;59.10;;;;;;4992950;28;20210;-58
2022/05/14 05:43:31;;;;;;;3.38;2.00;;;18.30;59.10;;;;;;4993336;28;20724;-58
2022/05/14 05:46:03;;;;;;;3.58;1.70;;;18.30;59.10;;;;;;4993874;28;20260;-58
2022/05/14 05:48:34;;;;;;;3.20;1.90;;;18.30;59.00;;;;;;4993574;28;20197;-58
2022/05/14 05:51:04;;;;;;;3.58;1.92;;;18.40;59.10;;;;;;4993110;28;20257;-59
2022/05/14 05:59:09;;;;;;;3.83;2.35;;;18.40;59.00;;;;;;4993609;28;20224;-58
2022/05/14 06:01:42;;;;;;;2.38;1.98;;;18.40;59.00;;;;;;4995583;28;20227;-58
2022/05/14 06:04:12;;;;;;;2.90;2.03;;;18.40;59.10;;;;;;4993169;28;20189;-58
2022/05/14 06:06:43;;;;;;;2.85;1.90;;;18.40;59.10;;;;;;4992763;28;20802;-59
2022/05/14 06:09:21;;;;;;;2.97;1.63;;;18.30;59.00;;;;;;4993266;28;20284;-59
2022/05/14 06:11:51;;;;;;;2.42;1.75;;;18.30;59.00;;;;;;4993064;28;20643;-58
2022/05/14 06:14:22;;;;;;;3.90;2.45;;;18.30;59.00;;;;;;4993243;28;20208;-58
2022/05/14 06:16:55;;;;;;;4.18;2.35;;;18.30;59.00;;;;;;4994007;28;20197;-58
2022/05/14 06:19:25;;;;;;;4.65;2.90;;;18.30;59.10;;;;;;4993485;28;20225;-58
2022/05/14 06:21:56;;;;;;;4.22;2.38;;;18.30;59.10;;;;;;4993172;28;20205;-59
2022/05/14 06:24:26;;;;;;;4.95;3.20;;;18.30;59.10;;;;;;4992331;28;20263;-58
2022/05/14 06:26:57;;;;;;;5.00;2.83;;;18.30;59.20;;;;;;4992400;28;20225;-58
2022/05/14 06:29:29;;;;;;;4.68;2.60;;;18.30;59.20;;;;;;4992667;28;20276;-58
2022/05/14 06:32:01;;;;;;;3.83;2.50;;;18.30;59.20;;;;;;4992951;28;20317;-59
2022/05/14 06:34:32;;;;;;;4.88;2.63;;;18.30;59.30;;;;;;4993085;28;20724;-59
2022/05/14 06:37:03;;;;;;;5.40;2.58;;;18.30;59.20;;;;;;4992832;28;20566;-58
2022/05/14 06:39:33;;;;;;;3.90;2.22;;;18.30;59.20;;;;;;4992732;28;20217;-58
2022/05/14 06:42:04;;;;;;;5.07;2.95;;;18.30;59.20;;;;;;4992362;28;20197;-59
2022/05/14 06:44:34;;;;;;;4.53;2.83;;;18.30;59.20;;;;;;4992519;28;20237;-58
2022/05/14 06:47:07;;;;;;;4.90;2.78;;;18.30;59.20;;;;;;4973020;28;20225;-58
2022/05/14 06:49:38;;;;;;;5.20;2.70;;;18.30;59.20;;;;;;4972728;28;20746;-58
2022/05/14 06:52:10;;;;;;;5.35;2.40;;;18.30;59.20;;;;;;4973046;28;20257;-59
2022/05/14 06:54:45;;;;;;;5.47;2.90;;;18.30;59.20;;;;;;4972934;28;20234;-58
2022/05/14 06:57:16;;;;;;;5.13;2.47;;;18.30;59.20;;;;;;4983489;28;20568;-58
2022/05/14 06:59:47;;;;;;;4.50;2.83;;;18.30;59.20;;;;;;4992046;28;20218;-59
2022/05/14 07:02:21;;;;;;;6.05;3.40;;;18.30;59.20;;;;;;4992306;28;20244;-59
2022/05/14 07:07:38;;;;;;;6.35;3.30;;;18.30;59.30;;;;;;4992309;28;20323;-58
2022/05/14 07:10:09;;;;;;;5.47;3.40;;;18.30;59.40;;;;;;4992310;28;20218;-58
2022/05/14 07:12:39;;;;;;;4.55;2.75;;;18.20;59.40;;;;;;4991603;28;20233;-58
2022/05/14 07:15:11;;;;;;;5.25;3.25;;;18.20;59.50;;;;;;4992693;28;20201;-58
2022/05/14 07:17:44;;;;;;;8.23;3.45;;;18.20;59.50;;;;;;4991454;28;20277;-59
2022/05/14 07:20:15;;;;;;;7.38;4.00;;;18.20;59.50;;;;;;4991871;28;20221;-59
2022/05/14 07:22:46;;;;;;;5.07;3.40;;;18.20;59.60;;;;;;4991938;28;20847;-59
2022/05/14 07:25:16;;;;;;;4.85;3.40;;;18.20;59.60;;;;;;4991873;28;20186;-59
2022/05/14 07:27:47;;;;;;;5.53;3.40;;;18.20;59.60;;;;;;4991276;28;20264;-59
2022/05/14 07:30:17;;;;;;;5.32;3.60;;;18.20;59.60;;;;;;4991628;28;20642;-59
2022/05/14 07:32:50;;;;;;;4.93;3.63;;;18.20;59.50;;;;;;4991136;28;20232;-59
2022/05/14 07:35:20;;;;;;;4.75;3.58;;;18.20;59.50;;;;;;4990797;28;20279;-59
2022/05/14 07:37:54;;;;;;;5.85;3.88;;;18.20;59.60;;;;;;4991840;28;20197;-59
2022/05/14 07:40:27;;;;;;;6.35;3.70;;;18.20;59.60;;;;;;4991886;28;20763;-59
2022/05/14 07:43:03;;;;;;;4.95;3.17;;;18.20;59.50;;;;;;4991488;28;20581;-59
2022/05/14 07:45:36;;;;;;;5.28;3.58;;;18.20;59.60;;;;;;4991726;28;20225;-59
2022/05/14 07:48:12;;;;;;;6.28;3.97;;;18.20;59.60;;;;;;4990603;28;20327;-59
2022/05/14 07:50:43;;;;;;;6.00;3.72;;;18.20;59.70;;;;;;4990751;28;20229;-59
2022/05/14 07:53:15;;;;;;;4.50;3.58;;;18.20;60.40;;;;;;4991556;28;20197;-59
2022/05/14 07:55:49;;;;;;;6.05;3.40;;;18.20;59.80;;;;;;4991525;28;20201;-59
2022/05/14 07:58:19;;;;;;;4.78;3.63;;;18.20;59.80;;;;;;4990712;28;20232;-59
2022/05/14 08:00:50;;;;;;;6.43;3.70;;;18.20;59.90;;;;;;4993398;28;20220;-59
2022/05/14 08:03:24;;;;;;;6.82;3.92;;;18.20;60.00;;;;;;4991066;28;20193;-59
2022/05/14 08:05:54;;;;;;;5.63;3.90;;;18.10;60.00;;;;;;4991374;28;20930;-59
2022/05/14 08:08:25;;;;;;;5.45;3.65;;;18.20;60.00;;;;;;4991257;28;20229;-58
2022/05/14 08:10:57;;;;;;;7.00;3.63;;;18.20;60.00;;;;;;4990955;28;20272;-58
2022/05/14 08:13:29;;;;;;;4.43;3.28;;;18.20;59.80;;;;;;4990439;28;20201;-59
2022/05/14 08:15:59;;;;;;;4.78;3.25;;;18.20;59.80;;;;;;4991617;28;20593;-59
2022/05/14 08:18:32;;;;;;;4.70;3.35;;;18.20;59.80;;;;;;4991155;28;20272;-58
2022/05/14 08:24:29;;;;;;;4.43;3.45;;;18.20;59.80;;;;;;4990486;28;20311;-59
2022/05/14 08:26:40;;;;;;;4.78;3.20;;;18.20;59.80;;;;;;4989841;28;20869;-59
2022/05/14 08:29:11;;;;;;;5.53;3.80;;;18.20;59.70;;;;;;4990439;28;20249;-59
2022/05/14 08:31:41;;;;;;;5.10;3.28;;;18.20;59.70;;;;;;4990535;28;20272;-59
2022/05/14 08:34:14;;;;;;;5.03;3.60;;;18.10;59.80;;;;;;4990249;28;20197;-58
2022/05/14 08:36:44;;;;;;;6.30;4.10;;;18.20;59.80;;;;;;4990272;28;20190;-58
2022/05/14 08:39:16;;;;;;;5.07;3.67;;;18.10;59.80;;;;;;4990575;28;20236;-59
2022/05/14 08:41:50;;;;;;;5.10;3.60;;;18.10;59.80;;;;;;4980274;28;20198;-58
2022/05/14 08:44:23;;;;;;;5.13;3.45;;;18.10;59.80;;;;;;4990324;28;20650;-58
2022/05/14 08:46:57;;;;;;;6.10;4.30;;;18.10;59.80;;;;;;4990098;28;20223;-60
2022/05/14 08:49:35;;;;;;;4.93;3.58;;;18.10;59.80;;;;;;4993491;28;20309;-58
2022/05/14 08:52:11;;;;;;;5.50;3.55;;;18.10;59.90;;;;;;5006187;28;20205;-58
2022/05/14 08:54:43;;;;;;;5.90;3.95;;;18.10;59.90;;;;;;5005190;28;20197;-58
2022/05/14 08:57:20;;;;;;;5.30;3.65;;;18.10;60.00;;;;;;5006863;28;20283;-58
2022/05/14 08:59:55;;;;;;;5.18;3.60;;;18.10;60.00;;;;;;5007783;28;20309;-58
2022/05/14 09:02:30;;;;;;;5.95;4.18;;;18.10;59.80;;;;;;5007978;28;20200;-58
2022/05/14 09:05:06;;;;;;;5.35;3.72;;;18.10;59.80;;;;;;5008654;28;20609;-58
2022/05/14 09:07:37;;;;;;;5.18;3.70;;;18.10;59.80;;;;;;5008485;28;20283;-58
2022/05/14 09:10:10;;;;;;;5.60;4.00;;;18.10;59.80;;;;;;5007654;28;20209;-58
2022/05/14 09:12:53;;;;;;;5.30;4.05;;;18.10;59.80;;;;;;5008669;28;20189;-58
2022/05/14 09:15:25;;;;;;;6.72;3.70;;;18.10;59.80;;;;;;5008592;28;20193;-59
2022/05/14 09:18:08;;;;;;;5.80;3.92;;;18.10;59.80;;;;;;5008622;28;20243;-59
2022/05/14 09:20:53;;;;;;;4.72;3.67;;;18.10;59.80;;;;;;5008677;28;20242;-59
2022/05/14 09:23:32;;;;;;;5.28;3.80;;;18.10;59.80;;;;;;5008680;28;20228;-58
2022/05/14 09:26:12;;;;;;;4.30;3.33;;;18.10;59.90;;;;;;5007305;28;20208;-59
2022/05/14 09:28:47;;;;;;;4.88;3.70;;;18.10;59.90;;;;;;5007236;28;20252;-59
2022/05/14 09:31:28;;;;;;;4.82;3.53;;;18.10;60.00;;;;;;5007604;28;20216;-58
2022/05/14 09:34:07;;;;;;;5.47;3.60;;;18.10;60.00;;;;;;5003099;28;20271;-59
2022/05/14 09:36:41;;;;;;;4.88;3.65;;;18.10;60.00;;;;;;5007389;28;20618;-59
2022/05/14 09:39:15;;;;;;;5.47;3.72;;;18.10;60.00;;;;;;5006963;28;20241;-59
2022/05/14 09:41:47;;;;;;;4.57;3.15;;;18.10;60.00;;;;;;5006889;28;20193;-59
2022/05/14 09:44:22;;;;;;;4.60;3.83;;;18.10;60.00;;;;;;5007418;28;20201;-59
2022/05/14 09:46:53;;;;;;;5.90;3.63;;;18.10;60.00;;;;;;5008419;28;20258;-59
2022/05/14 09:49:26;;;;;;;4.95;3.58;;;18.10;59.90;;;;;;5008002;28;20221;-59
2022/05/14 09:52:04;;;;;;;5.90;3.70;;;18.10;59.90;;;;;;5006596;28;20196;-59
2022/05/14 09:54:38;;;;;;;5.55;3.63;;;18.10;59.90;;;;;;5006975;28;20201;-58
2022/05/14 09:57:31;;;;;;;5.40;3.30;;;18.10;59.80;;;;;;5008780;28;20555;-59
2022/05/14 10:00:14;;;;;;;4.65;3.47;;;18.10;59.90;;;;;;5010896;28;21055;-59
2022/05/14 10:03:22;;;;;;;4.38;3.40;;;18.10;59.80;;;;;;5010245;28;20192;-58
2022/05/14 10:06:01;;;;;;;5.05;3.63;;;18.10;60.60;;;;;;5003416;28;20271;-59
2022/05/14 10:08:53;;;;;;;6.38;3.70;;;18.10;59.80;;;;;;5010824;28;20232;-59
2022/05/14 10:11:29;;;;;;;5.13;3.63;;;18.10;59.90;;;;;;5010933;28;20236;-59
2022/05/14 10:14:12;;;;;;;5.00;3.45;;;18.10;59.90;;;;;;5010573;28;20363;-59
2022/05/14 10:16:50;;;;;;;3.53;2.85;;;18.10;60.00;;;;;;5011803;28;20197;-59
2022/05/14 10:19:48;;;;;;;4.93;3.58;;;18.00;60.00;;;;;;5010921;28;20252;-59
2022/05/14 10:26:44;;;;;;;4.72;3.42;;;18.10;60.00;;;;;;5010972;28;20216;-59
2022/05/14 10:28:24;;;;;;;4.80;3.75;;;18.10;60.00;;;;;;5010710;28;20304;-59
2022/05/14 10:31:03;;;;;;;4.80;3.38;;;18.10;60.00;;;;;;5009903;28;20254;-59
2022/05/14 10:33:34;;;;;;;4.18;3.08;;;18.10;60.70;;;;;;5011400;28;20734;-58
2022/05/14 10:36:12;;;;;;;4.75;3.55;;;18.10;60.00;;;;;;5007828;28;20228;-59
2022/05/14 10:38:50;;;;;;;4.75;3.30;;;18.00;59.90;;;;;;5011244;28;20602;-59
2022/05/14 10:41:31;;;;;;;4.70;3.60;;;18.10;59.90;;;;;;5009911;28;20248;-59
2022/05/14 10:44:05;;;;;;;4.65;3.17;;;18.00;60.50;;;;;;5010381;28;20225;-58
2022/05/14 10:46:38;;;;;;;4.75;3.35;;;18.10;59.90;;;;;;5009877;28;20267;-59
2022/05/14 10:49:15;;;;;;;4.60;3.35;;;18.00;59.80;;;;;;5008842;28;20343;-58
2022/05/14 10:51:48;;;;;;;4.63;3.17;;;18.10;59.90;;;;;;5008317;28;20189;-59
2022/05/14 10:54:20;;;;;;;3.55;2.90;;;18.00;59.90;;;;;;5010702;28;20661;-59
2022/05/14 10:57:00;;;;;;;5.03;3.55;;;18.00;59.80;;;;;;5010286;28;20236;-59
2022/05/14 10:59:35;;;;;;;4.75;3.28;;;18.10;60.00;;;;;;5009991;28;20306;-59
2022/05/14 11:02:08;;;;;;;4.28;3.30;;;18.10;60.00;;;;;;5010323;28;20250;-59
2022/05/14 11:04:51;;;;;;;4.90;3.28;;;18.00;59.90;;;;;;5010113;28;20279;-59
2022/05/14 11:07:31;;;;;;;4.63;3.60;;;18.00;60.00;;;;;;5010499;28;20284;-59
2022/05/14 11:10:18;;;;;;;4.65;3.28;;;18.00;60.00;;;;;;5008738;28;20279;-59
2022/05/14 11:12:52;;;;;;;4.30;3.10;;;18.00;60.00;;;;;;5009203;28;20197;-59
2022/05/14 11:15:26;;;;;;;4.45;3.40;;;18.00;60.00;;;;;;5009951;28;20201;-59
2022/05/14 11:18:07;;;;;;;5.40;3.70;;;18.00;60.00;;;;;;5010222;28;20649;-59
2022/05/14 11:20:38;;;;;;;4.97;3.35;;;18.00;60.00;;;;;;5009715;28;20574;-59
2022/05/14 11:23:10;;;;;;;4.18;3.05;;;18.10;60.10;;;;;;5008755;28;20216;-59
2022/05/14 11:25:41;;;;;;;3.58;3.17;;;18.00;60.00;;;;;;5007846;28;20275;-59
2022/05/14 11:28:25;;;;;;;3.70;3.05;;;18.00;59.90;;;;;;5009594;28;20305;-58
2022/05/14 11:30:58;;;;;;;4.70;3.35;;;18.10;60.00;;;;;;5009098;28;20244;-59
2022/05/14 11:33:34;;;;;;;4.28;3.30;;;18.00;59.90;;;;;;5009361;28;20722;-59
2022/05/14 11:36:06;;;;;;;3.95;2.95;;;18.00;59.90;;;;;;5010111;28;20204;-58
2022/05/14 11:38:39;;;;;;;4.13;3.10;;;18.00;59.90;;;;;;5009206;28;20693;-58
2022/05/14 11:41:12;;;;;;;4.75;3.40;;;18.00;59.90;;;;;;5009317;28;20248;-58
2022/05/14 11:43:53;;;;;;;5.45;3.63;;;18.00;59.90;;;;;;5005843;28;20197;-58
2022/05/14 11:46:30;;;;;;;4.90;3.38;;;18.10;60.00;;;;;;5009404;28;20259;-58
2022/05/14 11:49:06;;;;;;;4.53;3.63;;;18.00;59.90;;;;;;5009182;28;20228;-59
2022/05/14 11:51:42;;;;;;;4.65;3.20;;;18.00;60.00;;;;;;5009392;28;20293;-58
2022/05/14 11:54:16;;;;;;;5.75;3.40;;;18.00;60.00;;;;;;5008175;28;20303;-59
2022/05/14 11:56:54;;;;;;;5.20;3.55;;;18.00;60.10;;;;;;5009721;28;20196;-58
2022/05/14 11:59:40;;;;;;;4.82;3.55;;;18.00;60.10;;;;;;5008682;28;20247;-59
2022/05/14 12:02:20;;;;;;;4.40;3.20;;;18.00;60.20;;;;;;5009911;28;20232;-58
2022/05/14 12:04:55;;;;;;;5.03;3.33;;;18.00;60.10;;;;;;5009577;28;20204;-58
2022/05/14 12:07:50;;;;;;;5.45;3.47;;;18.00;60.00;;;;;;5008670;28;20672;-59
2022/05/14 12:10:29;;;;;;;3.83;3.03;;;18.00;60.10;;;;;;5008406;28;20220;-59
2022/05/14 12:13:10;;;;;;;4.30;3.40;;;18.00;60.00;;;;;;5008632;28;20193;-59
2022/05/14 12:15:49;;;;;;;5.10;3.40;;;18.00;60.00;;;;;;5009474;28;20200;-58
2022/05/14 12:18:21;;;;;;;5.28;3.35;;;18.00;60.00;;;;;;5008684;28;20203;-58
2022/05/14 12:20:57;;;;;;;5.68;3.42;;;18.00;60.00;;;;;;5008973;28;20259;-59
2022/05/14 12:23:39;;;;;;;4.53;3.17;;;18.00;60.00;;;;;;5008402;28;20193;-58
2022/05/14 12:26:20;;;;;;;3.95;3.17;;;18.00;60.00;;;;;;5007237;28;20196;-59
2022/05/14 12:28:51;;;;;;;4.53;3.33;;;18.00;60.00;;;;;;5007516;28;20216;-59
2022/05/14 12:34:17;;;;;;;4.68;3.35;;;18.00;60.00;;;;;;5009405;28;20275;-59
2022/05/14 12:36:51;;;;;;;4.88;3.40;;;18.00;60.00;;;;;;5008696;28;20661;-59
2022/05/14 12:39:23;;;;;;;5.15;3.45;;;18.00;60.00;;;;;;5008328;28;20311;-59
2022/05/14 12:41:57;;;;;;;4.25;3.22;;;18.00;60.10;;;;;;5007922;28;20197;-59
2022/05/14 12:44:30;;;;;;;4.35;3.67;;;17.90;60.10;;;;;;5007385;28;20242;-59
2022/05/14 12:47:04;;;;;;;5.10;3.28;;;18.00;60.20;;;;;;5007420;28;20192;-59
2022/05/14 12:49:38;;;;;;;4.28;3.25;;;17.90;60.20;;;;;;5008344;28;20355;-58
2022/05/14 12:52:12;;;;;;;4.10;3.30;;;17.90;60.10;;;;;;5008855;28;20201;-59
2022/05/14 12:54:53;;;;;;;5.82;3.42;;;17.90;60.20;;;;;;5008541;28;20770;-59
2022/05/14 12:57:25;;;;;;;4.70;3.17;;;17.90;60.10;;;;;;5008853;28;20197;-59
2022/05/14 12:59:56;;;;;;;3.80;3.03;;;17.90;60.00;;;;;;5008213;28;20299;-58
2022/05/14 13:02:33;;;;;;;4.28;3.25;;;17.90;60.00;;;;;;5008930;28;20239;-59
2022/05/14 13:05:06;;;;;;;6.07;3.72;;;17.90;60.00;;;;;;5008934;28;20657;-58
2022/05/14 13:07:44;;;;;;;4.70;2.97;;;17.90;60.00;;;;;;5007731;28;20892;-59
2022/05/14 13:10:15;;;;;;;4.15;3.25;;;17.90;60.00;;;;;;5007637;28;20310;-59
2022/05/14 13:12:52;;;;;;;5.10;3.00;;;17.90;60.00;;;;;;5008517;28;20204;-58
2022/05/14 13:15:32;;;;;;;3.85;3.03;;;17.90;59.90;;;;;;5008777;28;20215;-58
2022/05/14 13:18:14;;;;;;;5.82;3.20;;;17.90;59.90;;;;;;5008316;28;20328;-58
2022/05/14 13:20:45;;;;;;;3.47;2.85;;;17.90;60.00;;;;;;5008345;28;20209;-59
2022/05/14 13:23:20;;;;;;;6.07;3.40;;;17.90;60.00;;;;;;5007247;28;20897;-59
2022/05/14 13:26:02;;;;;;;4.97;3.28;;;17.90;60.00;;;;;;5008403;28;20196;-58
2022/05/14 13:28:34;;;;;;;4.68;3.33;;;17.90;60.10;;;;;;5007631;28;20220;-58
2022/05/14 13:31:06;;;;;;;4.47;3.20;;;17.90;60.10;;;;;;5008261;28;20263;-58
2022/05/14 13:33:40;;;;;;;4.30;3.30;;;17.90;60.10;;;;;;5011918;28;20197;-58
2022/05/14 13:39:02;;;;;;;3.58;2.65;;;17.90;60.10;;;;;;4988608;28;20205;-58
2022/05/14 13:41:41;;;;;;;4.43;2.75;;;17.90;60.00;;;;;;5012252;28;20690;-58
2022/05/14 13:44:19;;;;;;;3.38;2.85;;;17.90;60.00;;;;;;5012086;28;20640;-58
2022/05/14 13:46:54;;;;;;;3.90;3.00;;;17.90;60.00;;;;;;5010340;28;20201;-59
2022/05/14 13:49:29;;;;;;;5.30;3.28;;;17.90;59.90;;;;;;5011280;28;20306;-59